Time;durP1;ratioP1;P1;durP2;ratioP2;P2;SDS_P1;SDS_P2;PMS_P1;PMS_P2;Temp;Humidity;BMP_temperature;BMP_pressure;BME280_temperature;BME280_humidity;BME280_pressure;Samples;Min_cycle;Max_cycle;Signal;HPM_P1;HPM_P2
2021/12/18 00:01:50;;;;;;;27.43;22.23;;;3.40;99.90;;;4.11;86.16;99959.50;5214456;28;20205;-61
2021/12/18 00:04:23;;;;;;;27.40;21.83;;;3.40;99.90;;;4.11;86.29;99962.03;5193185;28;20194;-62
2021/12/18 00:06:58;;;;;;;26.63;22.07;;;3.40;99.90;;;4.15;86.07;99960.75;5207945;28;20197;-62
2021/12/18 00:09:33;;;;;;;26.30;21.93;;;3.40;99.90;;;4.06;86.43;99963.13;5192291;28;20231;-59
2021/12/18 00:12:08;;;;;;;26.67;21.50;;;3.40;99.90;;;4.09;86.16;99957.50;5209066;28;20204;-61
2021/12/18 00:14:41;;;;;;;25.73;21.83;;;3.40;99.90;;;4.10;86.19;99957.72;5208998;28;20204;-62
2021/12/18 00:17:14;;;;;;;26.37;22.37;;;3.40;99.90;;;4.17;86.29;99956.78;5212346;28;20205;-62
2021/12/18 00:19:47;;;;;;;26.23;21.43;;;3.50;99.90;;;4.12;86.49;99955.34;5201090;28;20240;-60
2021/12/18 00:22:21;;;;;;;28.37;22.73;;;3.40;99.90;;;4.02;86.35;99956.81;5188326;28;20214;-61
2021/12/18 00:24:55;;;;;;;28.30;21.90;;;3.40;99.90;;;4.06;86.73;99956.47;5191353;28;20198;-62
2021/12/18 00:27:28;;;;;;;30.13;22.13;;;3.40;99.90;;;4.04;86.33;99952.84;5188271;28;20227;-60
2021/12/18 00:30:01;;;;;;;27.80;22.57;;;3.30;99.90;;;4.22;85.84;99948.09;5199308;28;20210;-62
2021/12/18 00:32:34;;;;;;;28.50;22.20;;;3.50;99.90;;;4.14;86.36;99946.31;5204257;28;20201;-59
2021/12/18 00:35:08;;;;;;;27.00;21.37;;;3.40;99.90;;;4.18;86.97;99953.53;5189811;28;20208;-62
2021/12/18 00:37:43;;;;;;;25.83;20.97;;;3.50;99.90;;;4.30;85.08;99949.88;5197796;28;20573;-61
2021/12/18 00:40:23;;;;;;;27.77;21.10;;;3.50;99.90;;;4.16;84.58;99947.38;5228022;28;20224;-62
2021/12/18 00:42:58;;;;;;;28.47;21.77;;;3.40;99.90;;;3.97;85.65;99942.72;5211924;28;20198;-62
2021/12/18 00:45:31;;;;;;;27.27;21.40;;;3.30;99.90;;;3.77;86.37;99947.09;5206936;28;20217;-63
2021/12/18 00:48:04;;;;;;;28.83;23.30;;;3.20;99.90;;;3.66;87.11;99942.38;5206562;28;20665;-60
2021/12/18 00:50:38;;;;;;;27.77;22.23;;;3.10;99.90;;;3.79;86.98;99945.63;5202279;28;20224;-61
2021/12/18 00:53:12;;;;;;;28.23;22.80;;;3.10;99.90;;;3.79;86.94;99950.69;5198073;28;20583;-59
2021/12/18 00:55:45;;;;;;;29.73;22.40;;;3.10;99.90;;;3.79;87.31;99943.13;5191657;28;20201;-59
2021/12/18 00:58:19;;;;;;;27.60;21.00;;;3.20;99.90;;;3.96;87.50;99947.63;5196663;28;20208;-61
2021/12/18 01:00:53;;;;;;;29.73;21.77;;;3.30;99.90;;;3.89;86.94;99951.03;5197925;28;20683;-61
2021/12/18 01:03:26;;;;;;;28.23;21.33;;;3.20;99.90;;;3.80;88.11;99955.03;5203700;28;20663;-59
2021/12/18 01:05:59;;;;;;;29.10;22.57;;;3.20;99.90;;;3.77;88.27;99954.66;5198874;28;20205;-62
2021/12/18 01:08:34;;;;;;;29.90;22.90;;;3.10;99.90;;;3.74;87.87;99961.91;5188033;28;20428;-60
2021/12/18 01:11:28;;;;;;;30.53;21.80;;;3.10;99.90;;;3.72;88.33;99951.63;5186401;28;20225;-61
2021/12/18 01:14:16;;;;;;;27.47;20.63;;;3.10;99.90;;;3.75;87.94;99951.03;5215470;28;20672;-58
2021/12/18 01:17:00;;;;;;;24.67;20.00;;;3.10;99.90;;;3.76;88.28;99958.81;5191905;28;20200;-61
2021/12/18 01:25:13;;;;;;;29.33;21.73;;;3.00;99.90;;;3.61;87.49;99963.00;5192464;28;20212;-61
2021/12/18 01:27:47;;;;;;;26.70;21.17;;;3.00;99.90;;;3.56;88.21;99969.13;5193864;28;20197;-62
2021/12/18 01:30:20;;;;;;;27.70;21.40;;;2.90;99.90;;;3.54;88.42;99965.50;5189775;28;20218;-62
2021/12/18 01:32:54;;;;;;;28.33;21.07;;;2.90;99.90;;;3.59;88.20;99972.00;5200309;28;20209;-62
2021/12/18 01:35:28;;;;;;;27.93;21.00;;;2.90;99.90;;;3.46;88.73;99966.22;5200761;28;20236;-63
2021/12/18 01:38:01;;;;;;;29.57;20.70;;;2.90;99.90;;;3.54;89.05;99960.44;5185881;28;20209;-63
2021/12/18 01:40:35;;;;;;;26.07;20.43;;;2.90;99.90;;;3.69;88.19;99965.50;5185637;28;20220;-60
2021/12/18 01:44:11;;;;;;;25.60;19.47;;;2.90;99.90;;;3.51;88.71;99967.66;5194906;28;20205;-57
2021/12/18 01:46:43;;;;;;;26.57;19.90;;;2.80;99.90;;;3.52;89.06;99963.50;5204990;28;20241;-61
2021/12/18 01:52:17;;;;;;;27.20;20.10;;;2.90;99.90;;;3.49;88.64;99966.59;5203662;28;20208;-62
2021/12/18 01:54:51;;;;;;;26.03;21.13;;;2.90;99.90;;;3.50;89.14;99963.34;5200780;28;20213;-62
2021/12/18 01:57:25;;;;;;;25.73;19.53;;;2.90;99.90;;;3.53;90.00;99963.72;5221326;28;20210;-60
2021/12/18 01:59:59;;;;;;;24.77;18.80;;;2.90;99.90;;;3.67;88.66;99961.91;5194559;28;20216;-62
2021/12/18 02:02:32;;;;;;;25.73;19.87;;;2.90;99.90;;;3.58;88.13;99965.16;5200884;28;20573;-59
2021/12/18 02:05:06;;;;;;;25.33;19.30;;;2.90;99.90;;;3.54;88.23;99962.06;5196688;28;20225;-62
2021/12/18 02:07:41;;;;;;;25.57;18.57;;;2.90;99.90;;;3.53;88.99;99958.66;5191457;28;20201;-62
2021/12/18 02:10:19;;;;;;;26.23;20.10;;;2.90;99.90;;;3.57;89.43;99949.78;5201835;28;20695;-62
2021/12/18 02:12:59;;;;;;;25.73;18.73;;;2.90;99.90;;;3.56;89.29;99964.06;5205750;28;20182;-62
2021/12/18 02:21:16;;;;;;;23.87;16.87;;;2.90;99.90;;;3.56;88.64;99950.53;5201567;28;20201;-62
2021/12/18 02:23:50;;;;;;;20.10;16.00;;;2.90;99.90;;;3.77;86.78;99953.03;5198013;28;20203;-62
2021/12/18 02:26:24;;;;;;;23.63;17.00;;;3.00;99.90;;;3.46;88.19;99948.53;5193711;28;20740;-62
2021/12/18 02:29:00;;;;;;;24.27;18.67;;;2.80;99.90;;;3.52;88.74;99950.88;5201838;28;20199;-62
2021/12/18 02:31:33;;;;;;;21.77;17.63;;;2.80;99.90;;;3.41;88.58;99952.16;5196878;28;20209;-61
2021/12/18 02:34:13;;;;;;;20.77;16.13;;;2.80;99.90;;;3.45;87.47;99966.06;5204320;28;20229;-61
2021/12/18 02:36:49;;;;;;;20.17;16.30;;;2.80;99.90;;;3.45;87.72;99959.38;5198455;28;20565;-62
2021/12/18 02:39:35;;;;;;;23.33;16.93;;;2.80;99.90;;;3.34;88.56;99962.25;5199285;28;20228;-62
2021/12/18 02:42:12;;;;;;;20.70;15.50;;;2.70;99.90;;;3.23;89.52;99966.00;5208507;28;20205;-62
2021/12/18 02:44:46;;;;;;;21.77;16.27;;;2.70;99.90;;;3.22;88.87;99958.28;5207846;28;20544;-60
2021/12/18 02:47:19;;;;;;;21.03;16.63;;;2.70;99.90;;;3.19;88.33;99961.31;5218483;28;20212;-59
2021/12/18 02:49:53;;;;;;;20.10;15.13;;;2.60;99.90;;;3.19;88.35;99968.00;5202980;28;20222;-60
2021/12/18 02:52:31;;;;;;;20.10;16.43;;;2.50;99.90;;;3.36;88.17;99973.44;5195630;28;20213;-63
2021/12/18 02:55:05;;;;;;;21.60;16.20;;;2.60;99.90;;;3.34;87.88;99959.72;5191959;28;20678;-60
2021/12/18 02:57:38;;;;;;;19.33;15.27;;;2.60;99.90;;;3.22;88.26;99965.84;5209777;28;20671;-62
2021/12/18 03:00:13;;;;;;;17.87;14.07;;;2.60;99.90;;;3.11;89.50;99970.50;5198978;28;20224;-59
2021/12/18 03:02:46;;;;;;;21.03;15.97;;;2.60;99.90;;;3.20;89.57;99963.13;5192528;28;20201;-61
2021/12/18 03:05:25;;;;;;;16.77;13.87;;;2.60;99.90;;;3.17;89.63;99966.19;5192527;28;20216;-61
2021/12/18 03:08:09;;;;;;;16.77;13.43;;;2.60;99.90;;;3.13;89.33;99974.13;5188267;28;20195;-62
2021/12/18 03:25:00;;;;;;;18.20;14.20;;;2.40;99.90;;;3.00;89.91;99968.31;5183914;28;20187;-61
2021/12/18 03:27:33;;;;;;;16.67;13.27;;;2.40;99.90;;;3.10;89.22;99967.81;5204981;28;20222;-61
2021/12/18 03:30:08;;;;;;;16.67;13.43;;;2.50;99.90;;;2.99;89.15;99964.00;5191577;28;20214;-61
2021/12/18 03:32:41;;;;;;;18.53;13.87;;;2.40;99.90;;;3.05;89.89;99958.78;5206518;28;20204;-61
2021/12/18 03:35:16;;;;;;;18.00;14.20;;;2.50;99.90;;;2.98;90.61;99957.16;5187617;28;20224;-62
2021/12/18 03:37:49;;;;;;;17.07;13.83;;;2.50;99.90;;;3.04;90.56;99955.34;5200275;28;20712;-62
2021/12/18 03:40:25;;;;;;;15.40;12.73;;;2.50;99.90;;;3.01;89.82;99956.63;5197513;28;20296;-61
2021/12/18 03:42:58;;;;;;;16.37;12.70;;;2.50;99.90;;;3.05;90.47;99957.16;5198588;28;20636;-62
2021/12/18 03:45:32;;;;;;;16.00;12.63;;;2.50;99.90;;;3.05;89.53;99956.25;5206937;28;20206;-59
2021/12/18 03:48:05;;;;;;;15.70;13.03;;;2.40;99.90;;;3.12;89.32;99947.06;5206068;28;20193;-61
2021/12/18 03:50:38;;;;;;;15.17;12.20;;;2.40;99.90;;;3.07;89.94;99957.34;5194312;28;20302;-61
2021/12/18 03:53:12;;;;;;;17.07;13.47;;;2.50;99.90;;;3.13;89.46;99947.97;5194872;28;20220;-62
2021/12/18 03:55:46;;;;;;;14.73;12.53;;;2.50;99.90;;;3.20;87.96;99954.66;5194614;28;20740;-60
2021/12/18 03:58:19;;;;;;;14.77;12.20;;;2.50;99.90;;;3.20;89.00;99954.66;5201435;28;20200;-61
2021/12/18 04:00:53;;;;;;;13.53;11.70;;;2.50;99.90;;;3.32;88.55;99941.88;5199909;28;20213;-61
2021/12/18 04:03:26;;;;;;;12.73;11.43;;;2.60;99.90;;;3.32;87.57;99930.81;5197248;28;20686;-61
2021/12/18 04:05:59;;;;;;;13.20;11.07;;;2.60;99.90;;;3.42;86.69;99935.38;5205626;28;20192;-61
2021/12/18 04:08:32;;;;;;;13.17;11.20;;;2.60;99.90;;;3.25;86.90;99933.38;5208454;28;20202;-61
2021/12/18 04:11:07;;;;;;;12.93;11.23;;;2.50;99.90;;;3.21;88.53;99923.63;5196568;28;20734;-62
2021/12/18 04:13:43;;;;;;;13.60;11.03;;;2.60;99.90;;;3.23;88.27;99928.09;5206614;28;20199;-62
2021/12/18 04:16:18;;;;;;;12.13;10.73;;;2.60;99.90;;;3.33;87.43;99920.00;5191228;28;20767;-62
2021/12/18 04:18:51;;;;;;;12.17;10.03;;;2.60;99.90;;;3.35;87.38;99921.09;5191734;28;20216;-61
2021/12/18 04:21:24;;;;;;;12.87;11.23;;;2.70;99.90;;;3.35;87.36;99916.06;5195278;28;20200;-62
2021/12/18 04:23:57;;;;;;;13.87;11.57;;;2.70;99.90;;;3.36;86.63;99917.84;5195846;28;20209;-61
2021/12/18 04:26:34;;;;;;;11.90;10.57;;;2.70;99.90;;;3.35;86.76;99916.06;5193655;28;20199;-61
2021/12/18 04:29:07;;;;;;;11.37;10.17;;;2.70;99.90;;;3.37;86.65;99919.63;5207512;28;20221;-61
2021/12/18 04:31:40;;;;;;;11.93;10.67;;;2.60;99.90;;;3.38;86.39;99916.41;5204860;28;20194;-61
2021/12/18 04:34:13;;;;;;;11.03;9.93;;;2.60;99.90;;;3.47;86.54;99930.13;5207101;28;20204;-62
2021/12/18 04:36:46;;;;;;;10.97;9.77;;;2.70;99.90;;;3.42;85.86;99918.56;5207372;28;20259;-61
2021/12/18 04:39:19;;;;;;;11.03;9.80;;;2.70;99.90;;;3.50;85.48;99927.06;5204341;28;20579;-60
2021/12/18 04:41:57;;;;;;;10.83;9.73;;;2.70;99.90;;;3.42;85.61;99923.63;5202179;28;20206;-61
2021/12/18 04:44:30;;;;;;;11.90;10.60;;;2.60;99.90;;;3.43;86.00;99912.78;5207380;28;20211;-61
2021/12/18 04:47:04;;;;;;;12.37;11.07;;;2.70;99.90;;;3.38;86.95;99912.25;5207474;28;20600;-61
2021/12/18 04:49:38;;;;;;;11.77;10.53;;;2.70;99.90;;;3.41;87.11;99916.78;5206683;28;20232;-62
2021/12/18 04:52:11;;;;;;;12.00;10.33;;;2.70;99.90;;;3.44;87.36;99909.56;5198550;28;20208;-62
2021/12/18 04:54:44;;;;;;;11.60;10.40;;;2.80;99.90;;;3.49;87.06;99915.13;5204579;28;20277;-62
2021/12/18 04:57:19;;;;;;;12.40;11.10;;;2.80;99.90;;;3.49;87.16;99916.06;5199380;28;20229;-62
2021/12/18 04:59:52;;;;;;;11.83;10.63;;;2.80;99.90;;;3.49;87.14;99908.47;5202679;28;20217;-61
2021/12/18 05:02:35;;;;;;;12.37;11.07;;;2.80;99.90;;;3.52;86.80;99900.31;5194999;28;20266;-61
2021/12/18 05:05:10;;;;;;;12.07;10.87;;;2.80;99.90;;;3.53;86.60;99908.09;5202008;28;20186;-61
2021/12/18 05:07:44;;;;;;;11.93;10.73;;;2.80;99.90;;;3.55;86.85;99908.28;5206702;28;20566;-61
2021/12/18 05:10:17;;;;;;;11.80;10.57;;;2.80;99.90;;;3.57;86.90;99920.34;5200062;28;20238;-62
2021/12/18 05:12:52;;;;;;;11.63;10.03;;;2.80;99.90;;;3.58;86.93;99908.66;5194436;28;20288;-62
2021/12/18 05:15:25;;;;;;;10.33;9.10;;;2.90;99.90;;;3.60;86.97;99919.81;5203505;28;20295;-61
2021/12/18 05:17:58;;;;;;;11.07;9.93;;;2.90;99.90;;;3.65;86.57;99912.78;5198518;28;20253;-61
2021/12/18 05:20:31;;;;;;;10.97;9.87;;;2.90;99.90;;;3.66;86.67;99912.03;5193798;28;20218;-61
2021/12/18 05:23:05;;;;;;;10.27;9.27;;;2.90;99.90;;;3.66;86.09;99912.03;5193111;28;20233;-60
2021/12/18 05:25:38;;;;;;;11.77;9.23;;;2.90;99.90;;;3.64;85.99;99909.34;5196665;28;20480;-62
2021/12/18 05:28:13;;;;;;;11.50;10.10;;;2.90;99.90;;;3.65;85.99;99923.78;5200064;28;20321;-62
2021/12/18 05:30:47;;;;;;;10.47;9.37;;;2.90;99.90;;;3.65;85.77;99920.38;5194905;28;20525;-61
2021/12/18 05:33:20;;;;;;;10.97;9.87;;;2.80;99.90;;;3.59;86.25;99921.44;5190454;28;20197;-61
2021/12/18 05:35:53;;;;;;;11.70;9.73;;;2.90;99.90;;;3.60;86.50;99913.13;5204208;28;20222;-61
2021/12/18 05:38:26;;;;;;;13.33;10.97;;;2.90;99.90;;;3.61;85.93;99914.97;5206241;28;20208;-62
2021/12/18 05:40:59;;;;;;;10.93;9.83;;;2.90;99.90;;;3.67;85.55;99918.94;5200612;28;20228;-61
2021/12/18 05:43:33;;;;;;;11.90;10.50;;;2.90;99.90;;;3.60;85.52;99908.06;5192808;28;20580;-62
2021/12/18 05:46:06;;;;;;;10.97;9.83;;;2.90;99.90;;;3.62;85.80;99915.84;5205066;28;20212;-61
2021/12/18 05:48:39;;;;;;;11.43;10.10;;;2.90;99.90;;;3.57;85.89;99915.31;5186358;28;20224;-61
2021/12/18 05:51:12;;;;;;;11.30;9.93;;;2.90;99.90;;;3.63;86.41;99924.34;5188616;28;20222;-61
2021/12/18 05:53:46;;;;;;;12.07;10.73;;;2.90;99.90;;;3.65;86.20;99928.84;5185140;28;20199;-60
2021/12/18 05:56:19;;;;;;;12.30;10.37;;;2.90;99.90;;;3.65;86.09;99928.84;5205530;28;20225;-62
2021/12/18 05:58:53;;;;;;;11.40;10.20;;;2.90;99.90;;;3.61;86.11;99930.13;5190897;28;20286;-61
2021/12/18 06:01:27;;;;;;;11.63;10.17;;;2.90;99.90;;;3.64;86.22;99933.75;5190072;28;20641;-61
2021/12/18 06:04:01;;;;;;;14.10;11.07;;;2.90;99.90;;;3.58;86.64;99923.81;5191507;28;20224;-61
2021/12/18 06:06:34;;;;;;;13.80;11.63;;;2.90;99.90;;;3.56;86.08;99932.84;5203287;28;20195;-61
2021/12/18 06:09:07;;;;;;;12.87;10.83;;;2.80;99.90;;;3.53;86.82;99930.84;5206631;28;20218;-60
2021/12/18 06:11:41;;;;;;;11.20;9.93;;;2.80;99.90;;;3.56;86.91;99928.69;5196086;28;20293;-60
2021/12/18 06:14:15;;;;;;;11.97;10.73;;;2.90;99.90;;;3.67;86.70;99934.09;5194992;28;20220;-62
2021/12/18 06:16:48;;;;;;;13.33;11.33;;;3.00;99.90;;;3.69;85.89;99936.09;5191383;28;20224;-61
2021/12/18 06:19:21;;;;;;;14.90;12.23;;;2.90;99.90;;;3.60;85.79;99930.81;5193320;28;20218;-61
2021/12/18 06:21:54;;;;;;;11.40;10.20;;;2.90;99.90;;;3.68;85.82;99933.38;5196253;28;20197;-60
2021/12/18 06:24:28;;;;;;;12.57;10.20;;;2.90;99.90;;;3.67;86.28;99941.69;5189997;28;20213;-61
2021/12/18 06:27:01;;;;;;;15.40;11.23;;;3.00;99.90;;;3.71;86.99;99931.19;5208437;28;20197;-59
2021/12/18 06:29:38;;;;;;;15.93;11.60;;;3.10;99.90;;;3.70;86.94;99934.47;5190348;28;20228;-60
2021/12/18 06:32:11;;;;;;;14.00;10.33;;;3.00;99.90;;;3.71;86.81;99933.72;5203035;28;20575;-60
2021/12/18 06:34:44;;;;;;;13.77;10.27;;;3.00;99.90;;;3.75;87.02;99935.88;5206365;28;20201;-60
2021/12/18 06:37:17;;;;;;;13.80;11.67;;;3.00;99.90;;;3.77;86.38;99929.38;5210183;28;20221;-61
2021/12/18 06:39:51;;;;;;;13.93;9.97;;;3.10;99.90;;;3.79;86.64;99930.47;5206319;28;20217;-61
2021/12/18 06:42:43;;;;;;;13.63;11.23;;;3.10;99.90;;;3.81;86.75;99931.56;5198007;28;20224;-62
2021/12/18 06:45:17;;;;;;;13.57;11.23;;;3.10;99.90;;;3.84;86.87;99927.75;5195046;28;20289;-62
2021/12/18 06:47:50;;;;;;;13.40;11.17;;;3.10;99.90;;;3.78;87.30;99926.16;5192590;28;20204;-62
2021/12/18 06:50:23;;;;;;;13.93;11.77;;;3.10;99.90;;;3.88;86.92;99928.09;5202357;28;20213;-62
2021/12/18 06:52:57;;;;;;;14.03;10.57;;;3.10;99.90;;;3.83;87.03;99933.53;5190625;28;20201;-62
2021/12/18 06:55:30;;;;;;;14.17;11.80;;;3.10;99.90;;;3.81;87.19;99923.97;5190864;28;20222;-62
2021/12/18 06:58:03;;;;;;;14.50;12.73;;;3.10;99.90;;;3.84;87.34;99924.31;5195174;28;20662;-62
2021/12/18 07:00:38;;;;;;;14.23;11.30;;;3.10;99.90;;;3.82;87.18;99930.81;5185973;28;20324;-61
2021/12/18 07:03:12;;;;;;;15.00;12.83;;;3.10;99.90;;;3.82;87.39;99930.81;5201399;28;20204;-62
2021/12/18 07:05:45;;;;;;;13.53;11.53;;;3.10;99.90;;;3.84;87.12;99934.44;5192787;28;20706;-62
2021/12/18 07:08:19;;;;;;;17.63;12.23;;;3.10;99.90;;;3.84;87.21;99935.34;5192825;28;20227;-62
2021/12/18 07:10:52;;;;;;;14.07;12.17;;;3.10;99.90;;;3.89;86.74;99940.91;5200874;28;20320;-62
2021/12/18 07:13:25;;;;;;;16.47;12.20;;;3.10;99.90;;;3.87;86.96;99942.38;5189991;28;20224;-61
2021/12/18 07:15:59;;;;;;;17.23;13.00;;;3.20;99.90;;;3.86;87.09;99950.69;5195970;28;20206;-61
2021/12/18 07:18:32;;;;;;;15.37;12.20;;;3.20;99.90;;;3.79;87.62;99943.13;5197276;28;20199;-62
2021/12/18 07:21:06;;;;;;;16.07;12.60;;;3.10;99.90;;;3.83;87.23;99941.13;5195784;28;20217;-62
2021/12/18 07:23:40;;;;;;;15.03;12.30;;;3.10;99.90;;;3.83;87.08;99945.25;5206407;28;20202;-61
2021/12/18 07:26:13;;;;;;;14.30;12.57;;;3.10;99.90;;;3.91;86.67;99951.22;5206663;28;20236;-61
2021/12/18 07:28:46;;;;;;;16.00;12.03;;;3.10;99.90;;;3.92;86.04;99946.38;5208381;28;20201;-61
2021/12/18 07:31:20;;;;;;;14.53;11.10;;;3.10;99.90;;;3.81;85.79;99947.63;5209037;28;20577;-62
2021/12/18 07:33:54;;;;;;;14.77;11.37;;;3.00;99.90;;;3.88;86.11;99941.66;5212184;28;20196;-62
2021/12/18 07:36:27;;;;;;;15.93;11.63;;;3.10;99.90;;;3.81;86.19;99949.25;5210264;28;20218;-61
2021/12/18 07:39:01;;;;;;;15.03;11.70;;;3.00;99.90;;;3.81;86.51;99946.72;5199282;28;20656;-61
2021/12/18 07:41:34;;;;;;;13.93;11.57;;;3.10;99.90;;;3.84;86.62;99962.25;5206525;28;20205;-59
2021/12/18 07:44:07;;;;;;;15.60;12.37;;;3.10;99.90;;;3.86;86.78;99950.69;5209130;28;20205;-60
2021/12/18 07:46:42;;;;;;;16.00;11.63;;;3.10;99.90;;;3.87;86.62;99960.09;5218822;28;20583;-61
2021/12/18 07:49:15;;;;;;;14.03;11.30;;;3.10;99.90;;;3.87;86.20;99955.03;5209440;28;20227;-61
2021/12/18 07:51:48;;;;;;;14.90;11.87;;;3.10;99.90;;;3.92;85.41;99959.00;5209065;28;20206;-60
2021/12/18 07:54:21;;;;;;;16.60;12.37;;;3.10;99.90;;;3.97;84.91;99969.63;5201907;28;20194;-59
2021/12/18 07:56:54;;;;;;;14.33;11.10;;;3.10;99.90;;;3.98;84.53;99972.38;5207358;28;20206;-60
2021/12/18 07:59:27;;;;;;;14.53;11.43;;;3.10;99.90;;;4.00;83.95;99973.41;5206877;28;20232;-61
2021/12/18 08:02:04;;;;;;;14.67;11.17;;;3.10;99.90;;;4.04;83.60;99973.06;5206890;28;20292;-61
2021/12/18 08:04:37;;;;;;;15.20;11.73;;;3.10;99.90;;;3.96;83.57;99971.28;5195502;28;20656;-61
2021/12/18 08:07:10;;;;;;;13.83;11.17;;;3.10;99.90;;;3.98;83.91;99959.72;5201731;28;20244;-61
2021/12/18 08:09:44;;;;;;;16.13;12.93;;;3.10;99.90;;;4.03;83.17;99971.28;5201859;28;20229;-62
2021/12/18 08:12:17;;;;;;;14.27;12.13;;;3.10;99.90;;;3.99;82.76;99970.72;5200176;28;20201;-62
2021/12/18 08:14:50;;;;;;;13.37;11.80;;;3.10;99.90;;;3.93;82.99;99968.38;5201260;28;20208;-61
2021/12/18 08:17:24;;;;;;;16.37;11.80;;;3.10;99.90;;;3.86;83.27;99962.44;5201644;28;20229;-62
2021/12/18 08:19:58;;;;;;;14.67;12.27;;;3.00;99.90;;;3.89;83.32;99961.16;5198487;28;20218;-61
2021/12/18 08:22:31;;;;;;;16.43;11.97;;;3.10;99.90;;;3.91;82.76;99972.34;5201612;28;20745;-61
2021/12/18 08:25:05;;;;;;;15.47;12.00;;;3.10;99.90;;;3.97;82.63;99965.47;5201103;28;20205;-61
2021/12/18 08:27:38;;;;;;;14.40;11.73;;;3.00;99.90;;;4.05;82.11;99966.38;5206147;28;20200;-61
2021/12/18 08:30:12;;;;;;;14.87;11.83;;;3.00;99.90;;;3.94;81.98;99965.13;5197272;28;20684;-61
2021/12/18 08:32:47;;;;;;;15.57;12.53;;;3.00;99.90;;;3.99;82.26;99965.69;5202488;28;20215;-65
2021/12/18 08:35:21;;;;;;;15.90;12.60;;;3.10;99.90;;;3.97;81.86;99970.53;5204636;28;20255;-64
2021/12/18 08:37:54;;;;;;;16.57;13.07;;;3.00;99.90;;;3.97;82.57;99975.59;5203816;28;20221;-65
2021/12/18 08:40:29;;;;;;;14.90;11.97;;;3.10;99.90;;;3.88;83.05;99979.59;5207077;28;20224;-65
2021/12/18 08:43:03;;;;;;;18.40;13.03;;;3.10;99.90;;;3.91;83.44;99976.53;5201152;28;20208;-65
2021/12/18 08:45:36;;;;;;;17.33;14.37;;;3.10;99.90;;;3.94;83.20;99979.41;5202481;28;20237;-64
2021/12/18 08:48:10;;;;;;;17.30;12.87;;;3.10;99.90;;;3.99;82.11;99973.25;5201408;28;20205;-59
2021/12/18 08:50:43;;;;;;;16.87;13.10;;;3.10;99.90;;;4.18;81.41;99976.31;5191701;28;20710;-61
2021/12/18 08:53:17;;;;;;;14.00;11.73;;;3.30;99.90;;;4.26;80.56;99978.06;5190050;28;20198;-61
2021/12/18 08:55:50;;;;;;;15.90;12.93;;;3.40;99.90;;;4.15;81.10;99975.94;5195207;28;20573;-60
2021/12/18 08:58:23;;;;;;;15.83;13.03;;;3.30;99.90;;;4.14;81.06;99972.50;5201886;28;20225;-61
2021/12/18 09:00:56;;;;;;;15.80;13.50;;;3.30;99.90;;;4.17;80.20;99974.50;5196626;28;20216;-62
2021/12/18 09:03:31;;;;;;;16.23;13.40;;;3.30;99.90;;;4.15;81.58;99975.94;5199512;28;20231;-63
2021/12/18 09:06:05;;;;;;;16.20;12.47;;;3.40;99.90;;;4.10;80.90;99977.06;5197243;28;20197;-62
2021/12/18 09:08:38;;;;;;;13.27;11.87;;;3.40;99.90;;;4.13;81.34;99972.34;5202542;28;20653;-61
2021/12/18 09:11:11;;;;;;;12.43;11.13;;;3.40;99.90;;;4.18;80.69;99971.25;5194919;28;20337;-61
2021/12/18 09:13:44;;;;;;;11.33;10.13;;;3.40;99.90;;;4.21;81.75;99979.19;5199446;28;20687;-63
2021/12/18 09:16:23;;;;;;;11.40;10.20;;;3.50;99.90;;;4.34;80.21;99984.94;5204123;28;20822;-60
2021/12/18 09:18:57;;;;;;;13.60;11.50;;;3.50;99.90;;;4.38;79.91;99981.13;5201981;28;20214;-61
2021/12/18 09:21:30;;;;;;;12.50;11.20;;;3.60;99.90;;;4.37;80.41;99972.63;5202254;28;20213;-61
2021/12/18 09:24:04;;;;;;;12.17;10.77;;;3.60;99.90;;;4.51;79.11;99972.59;5200002;28;20205;-62
2021/12/18 09:26:37;;;;;;;14.03;12.20;;;3.70;99.90;;;4.40;79.87;99977.16;5201290;28;20209;-63
2021/12/18 09:29:10;;;;;;;12.13;10.83;;;3.60;99.90;;;4.49;79.21;99975.66;5201644;28;20223;-63
2021/12/18 09:31:43;;;;;;;12.53;10.77;;;3.70;99.90;;;4.53;79.06;99972.78;5200406;28;20696;-62
2021/12/18 09:34:18;;;;;;;14.93;12.77;;;3.60;99.90;;;4.63;76.95;99969.66;5205707;28;20195;-59
2021/12/18 09:36:51;;;;;;;16.83;13.00;;;3.70;99.90;;;4.48;77.84;99964.63;5202433;28;20216;-60
2021/12/18 09:39:24;;;;;;;14.90;12.33;;;3.70;99.90;;;4.47;78.59;99962.84;5198247;28;20239;-62
2021/12/18 09:41:57;;;;;;;13.37;11.97;;;3.70;99.90;;;4.35;78.85;99961.44;5193329;28;20194;-60
2021/12/18 09:44:34;;;;;;;12.80;11.50;;;3.60;99.90;;;4.31;78.85;99973.56;5201648;28;20669;-62
2021/12/18 09:47:07;;;;;;;13.83;12.23;;;3.60;99.90;;;4.45;78.13;99971.00;5198531;28;20224;-61
2021/12/18 09:49:42;;;;;;;12.83;11.57;;;3.60;99.90;;;4.48;77.60;99964.63;5197905;28;20222;-59
2021/12/18 09:52:15;;;;;;;12.17;10.87;;;3.60;99.90;;;4.37;78.38;99967.56;5199171;28;20202;-60
2021/12/18 09:54:48;;;;;;;12.43;11.23;;;3.60;99.90;;;4.38;77.96;99954.19;5193047;28;20202;-61
2021/12/18 09:57:21;;;;;;;12.63;10.70;;;3.60;99.90;;;4.54;77.53;99954.31;5203988;28;20206;-61
2021/12/18 09:59:55;;;;;;;13.03;11.33;;;3.70;99.90;;;4.43;78.12;99947.13;5208129;28;20217;-61
2021/12/18 10:02:28;;;;;;;13.60;12.10;;;3.60;99.90;;;4.57;77.77;99944.53;5197407;28;20682;-58
2021/12/18 10:05:03;;;;;;;12.47;11.10;;;3.70;99.90;;;4.54;78.49;99939.13;5197633;28;20220;-60
2021/12/18 10:07:36;;;;;;;14.13;11.57;;;3.70;99.90;;;4.44;78.66;99934.66;5199550;28;20212;-59
2021/12/18 10:10:11;;;;;;;13.33;11.90;;;3.70;99.90;;;4.57;78.57;99928.44;5205337;28;20225;-61
2021/12/18 10:12:44;;;;;;;13.13;11.73;;;3.80;99.90;;;4.75;77.33;99935.59;5204630;28;20201;-60
2021/12/18 10:15:18;;;;;;;13.03;11.73;;;3.80;99.90;;;4.72;76.76;99927.63;5208264;28;20205;-62
2021/12/18 10:18:07;;;;;;;13.13;11.87;;;3.80;99.90;;;4.59;77.21;99920.28;5199195;28;20210;-61
2021/12/18 10:20:41;;;;;;;12.87;11.57;;;3.70;99.90;;;4.55;78.33;99923.22;5194563;28;20309;-63
2021/12/18 10:23:14;;;;;;;11.80;10.60;;;3.70;99.90;;;4.58;78.83;99910.91;5198637;28;20200;-61
2021/12/18 10:25:47;;;;;;;12.60;11.30;;;3.80;99.90;;;4.69;77.89;99915.56;5200860;28;20673;-61
2021/12/18 10:28:23;;;;;;;13.37;11.27;;;3.90;99.90;;;4.66;78.07;99916.81;5198422;28;20206;-60
2021/12/18 10:30:58;;;;;;;13.20;11.80;;;3.90;99.90;;;4.65;78.14;99915.03;5199849;28;20248;-59
2021/12/18 10:33:35;;;;;;;14.40;11.67;;;3.80;99.90;;;4.62;78.66;99907.97;5202248;28;20670;-60
2021/12/18 10:36:15;;;;;;;13.07;11.77;;;3.80;99.90;;;4.63;78.14;99901.28;5199835;28;20212;-61
2021/12/18 10:38:52;;;;;;;12.43;11.13;;;3.80;99.90;;;4.71;77.65;99900.50;5201931;28;20209;-62
2021/12/18 10:41:29;;;;;;;12.63;11.43;;;3.90;99.90;;;4.79;77.20;99897.22;5200304;28;20196;-63
2021/12/18 10:44:06;;;;;;;11.47;10.37;;;3.90;99.90;;;4.74;77.06;99899.22;5201917;28;20208;-61
2021/12/18 10:46:43;;;;;;;15.80;12.67;;;3.90;99.90;;;4.75;76.37;99895.09;5201996;28;20218;-61
2021/12/18 10:49:19;;;;;;;13.50;12.13;;;3.90;99.90;;;4.89;76.46;99894.06;5201995;28;20317;-59
2021/12/18 10:51:58;;;;;;;13.23;11.33;;;4.00;99.90;;;4.93;76.53;99893.69;5201581;28;20518;-62
2021/12/18 10:54:37;;;;;;;13.70;12.30;;;4.00;99.90;;;4.95;76.65;99883.00;5201250;28;20201;-62
2021/12/18 10:57:21;;;;;;;12.97;11.67;;;4.10;99.90;;;5.06;76.53;99895.94;5201855;28;20202;-62
2021/12/18 10:59:57;;;;;;;13.67;12.30;;;4.20;99.90;;;4.99;75.53;99884.25;5195642;28;20218;-60
2021/12/18 11:02:30;;;;;;;13.77;12.27;;;4.10;99.90;;;4.97;75.66;99884.06;5197388;28;20197;-60
2021/12/18 11:05:17;;;;;;;13.20;11.90;;;4.10;99.90;;;5.01;76.22;99882.78;5193066;28;20468;-61
2021/12/18 11:08:09;;;;;;;14.17;12.67;;;4.10;99.90;;;5.01;76.07;99889.47;5203830;28;20198;-62
2021/12/18 11:10:53;;;;;;;13.60;12.20;;;4.20;99.90;;;4.99;76.50;99876.63;5202744;28;20236;-62
2021/12/18 11:13:38;;;;;;;15.10;13.00;;;4.30;99.90;;;5.05;76.04;99881.50;5202067;28;20581;-62
2021/12/18 11:16:11;;;;;;;13.97;12.57;;;4.30;99.90;;;5.14;74.14;99873.25;5204758;28;20193;-62
2021/12/18 11:18:47;;;;;;;13.23;11.93;;;4.20;99.90;;;5.03;74.19;99868.63;5200287;28;20240;-61
2021/12/18 11:21:24;;;;;;;15.30;13.70;;;4.00;99.90;;;4.90;77.33;99875.63;5200606;28;20661;-62